Time;durP1;ratioP1;P1;durP2;ratioP2;P2;SDS_P1;SDS_P2;PMS_P1;PMS_P2;Temp;Humidity;BMP_temperature;BMP_pressure;BME280_temperature;BME280_humidity;BME280_pressure;Samples;Min_cycle;Max_cycle;Signal;HPM_P1;HPM_P2
2023/06/21 00:00:48;;;;;;;14.38;11.60;;;;;;;20.95;93.26;96177.38;10537068;28;20220;-73
2023/06/21 00:05:48;;;;;;;13.23;11.40;;;;;;;21.02;92.26;96175.38;10536511;28;20231;-73
2023/06/21 00:10:49;;;;;;;13.32;11.43;;;;;;;21.21;90.81;96172.56;10536552;28;20321;-73
2023/06/21 00:15:50;;;;;;;12.60;11.30;;;;;;;21.25;90.18;96172.88;10536429;28;20239;-73
2023/06/21 00:20:51;;;;;;;12.40;10.95;;;;;;;21.45;89.14;96175.09;10536021;28;20192;-72
2023/06/21 00:25:51;;;;;;;14.48;10.88;;;;;;;21.80;86.49;96171.47;10534620;28;20551;-73
2023/06/21 00:30:51;;;;;;;12.23;10.55;;;;;;;21.95;84.97;96170.94;10536025;28;20283;-72
2023/06/21 00:35:52;;;;;;;13.13;11.13;;;;;;;22.05;84.23;96174.56;10518000;28;20293;-73
2023/06/21 00:40:53;;;;;;;13.18;10.93;;;;;;;22.06;83.89;96170.84;10517712;28;20260;-73
2023/06/21 00:45:54;;;;;;;12.60;10.57;;;;;;;22.24;82.51;96172.44;10534115;28;20194;-73
2023/06/21 00:50:57;;;;;;;14.07;11.30;;;;;;;22.32;81.73;96186.47;10535481;28;20628;-73
2023/06/21 00:55:58;;;;;;;13.48;10.88;;;;;;;22.57;80.02;96196.69;10517725;28;20202;-73
2023/06/21 01:00:59;;;;;;;14.02;11.73;;;;;;;22.77;78.41;96190.81;10500788;28;20214;-73
2023/06/21 01:06:32;;;;;;;13.40;11.02;;;;;;;22.70;79.05;96241.75;10535664;28;20191;-73
2023/06/21 01:11:51;;;;;;;11.52;10.32;;;;;;;23.31;74.07;96246.31;10534994;28;20238;-73
2023/06/21 01:16:52;;;;;;;11.32;6.97;;;;;;;23.38;71.09;96225.53;10517054;28;20241;-73
2023/06/21 01:21:53;;;;;;;11.02;5.35;;;;;;;23.29;69.05;96197.63;10516695;28;20191;-72
2023/06/21 01:27:16;;;;;;;7.28;4.95;;;;;;;23.10;69.43;96205.16;10534040;28;20179;-73
2023/06/21 01:32:17;;;;;;;14.05;5.82;;;;;;;23.04;70.12;96220.28;10533675;28;20328;-73
2023/06/21 01:37:17;;;;;;;9.82;5.13;;;;;;;22.98;70.08;96214.06;10540508;28;20690;-73
2023/06/21 01:42:19;;;;;;;10.32;5.35;;;;;;;22.54;71.85;96229.22;10541865;28;20231;-73
2023/06/21 01:47:19;;;;;;;10.50;5.57;;;;;;;22.56;72.22;96246.63;10542313;28;20193;-72
2023/06/21 01:52:20;;;;;;;9.60;6.18;;;;;;;22.29;73.60;96264.31;10523051;28;20585;-73
2023/06/21 01:57:23;;;;;;;8.30;5.53;;;;;;;22.13;74.19;96273.91;10523599;28;20187;-73
2023/06/21 02:02:24;;;;;;;7.00;4.88;;;;;;;22.01;75.22;96274.78;10523241;28;20187;-72
2023/06/21 02:07:24;;;;;;;7.25;5.15;;;;;;;21.70;76.73;96266.25;10539991;28;20278;-73
2023/06/21 02:12:33;;;;;;;10.70;4.90;;;;;;;21.68;76.49;96246.19;10522739;28;20241;-73
2023/06/21 02:17:33;;;;;;;10.02;4.88;;;;;;;21.57;76.91;96253.19;10522576;28;20545;-73
2023/06/21 02:22:33;;;;;;;7.07;3.72;;;;;;;21.48;75.25;96227.94;10540840;28;20182;-73
2023/06/21 02:27:34;;;;;;;10.05;3.55;;;;;;;21.53;74.90;96234.22;10540004;28;20228;-73
2023/06/21 02:32:34;;;;;;;5.55;2.88;;;;;;;21.47;74.13;96232.47;10540393;28;20207;-73
2023/06/21 02:37:35;;;;;;;3.55;2.65;;;;;;;21.36;73.85;96223.47;10540003;28;20209;-73
2023/06/21 02:42:39;;;;;;;6.47;2.70;;;;;;;21.32;74.30;96224.97;10539401;28;20188;-73
2023/06/21 02:47:40;;;;;;;5.10;2.85;;;;;;;21.28;74.20;96221.16;10520536;28;20214;-73
2023/06/21 02:52:40;;;;;;;4.95;2.80;;;;;;;21.14;74.76;96227.81;10520841;28;20218;-73
2023/06/21 02:57:41;;;;;;;4.82;3.15;;;;;;;21.03;76.17;96243.56;10521232;28;20183;-73
2023/06/21 03:02:44;;;;;;;7.13;2.95;;;;;;;20.98;76.64;96267.44;10520674;28;20179;-72
2023/06/21 03:07:46;;;;;;;6.18;3.17;;;;;;;21.06;75.68;96281.44;10538877;28;20198;-72
2023/06/21 03:12:47;;;;;;;6.47;3.38;;;;;;;21.24;74.86;96281.31;10520137;28;20218;-73
2023/06/21 03:17:51;;;;;;;5.18;2.80;;;;;;;21.10;74.63;96280.75;10520230;28;20570;-73
2023/06/21 03:22:51;;;;;;;3.63;2.20;;;;;;;21.18;73.97;96266.25;10519862;28;20190;-73
2023/06/21 03:27:52;;;;;;;5.07;2.55;;;;;;;21.04;74.17;96260.34;10519726;28;20256;-73
2023/06/21 03:32:52;;;;;;;3.78;2.15;;;;;;;20.95;75.04;96288.38;10519594;28;20222;-73
2023/06/21 03:37:52;;;;;;;4.82;2.50;;;;;;;20.67;76.26;96303.22;10519542;28;20218;-73
2023/06/21 03:42:58;;;;;;;6.25;2.30;;;;;;;20.44;77.04;96315.44;10519070;28;20186;-73
2023/06/21 03:48:03;;;;;;;2.92;2.45;;;;;;;20.59;76.69;96314.19;10519007;28;20189;-73
2023/06/21 03:53:04;;;;;;;3.15;2.17;;;;;;;20.45;77.82;96326.88;10519117;28;20219;-73
2023/06/21 03:58:05;;;;;;;5.80;2.10;;;;;;;20.33;78.12;96334.03;10518054;28;20191;-73
2023/06/21 04:03:06;;;;;;;8.00;2.75;;;;;;;20.07;80.06;96346.69;10518564;28;20182;-72
2023/06/21 04:08:06;;;;;;;6.50;2.60;;;;;;;20.14;80.85;96345.53;10536768;28;20277;-72
2023/06/21 04:13:07;;;;;;;4.22;2.38;;;;;;;20.19;81.20;96350.19;10518151;28;20229;-72
2023/06/21 04:18:07;;;;;;;4.50;2.55;;;;;;;20.20;82.32;96366.94;10535216;28;20193;-73
2023/06/21 04:23:08;;;;;;;6.28;2.38;;;;;;;20.38;81.59;96368.75;10536403;28;20847;-72
2023/06/21 04:28:10;;;;;;;5.20;2.70;;;;;;;20.31;82.00;96366.19;10536270;28;20646;-72
2023/06/21 04:33:10;;;;;;;4.97;2.70;;;;;;;20.52;81.74;96386.16;10517891;28;20214;-72
2023/06/21 04:38:10;;;;;;;5.95;2.70;;;;;;;20.74;80.10;96377.66;10536182;28;20210;-72
2023/06/21 04:43:11;;;;;;;6.68;3.05;;;;;;;20.90;80.30;96398.25;10535553;28;20194;-72
2023/06/21 04:48:11;;;;;;;10.95;3.10;;;;;;;21.14;79.32;96401.75;10536118;28;20225;-73
2023/06/21 04:53:12;;;;;;;7.32;3.75;;;;;;;21.23;80.07;96404.91;10517353;28;20214;-73
2023/06/21 04:58:13;;;;;;;8.18;4.30;;;;;;;21.41;80.55;96408.47;10535684;28;20284;-73
2023/06/21 05:03:13;;;;;;;7.57;3.95;;;;;;;21.50;80.28;96396.44;10535727;28;20550;-72
2023/06/21 05:08:13;;;;;;;5.72;4.00;;;;;;;21.66;79.89;96392.25;10517976;28;20255;-72
2023/06/21 05:13:14;;;;;;;9.02;4.65;;;;;;;21.71;80.24;96400.34;10543333;28;20230;-72
2023/06/21 05:18:14;;;;;;;5.90;4.72;;;;;;;21.82;80.38;96393.38;10542949;28;20195;-73
2023/06/21 05:23:15;;;;;;;6.38;4.63;;;;;;;22.05;79.50;96397.81;10542774;28;20185;-73
2023/06/21 05:28:15;;;;;;;9.90;5.20;;;;;;;22.34;79.13;96408.53;10542723;28;20190;-72
2023/06/21 05:33:16;;;;;;;10.57;5.10;;;;;;;22.43;78.25;96397.25;10542321;28;20225;-73
2023/06/21 05:38:16;;;;;;;8.18;5.30;;;;;;;22.51;78.10;96401.38;10542744;28;20247;-72
2023/06/21 05:43:16;;;;;;;9.38;5.45;;;;;;;22.58;78.43;96403.91;10542026;28;20247;-72
2023/06/21 05:48:17;;;;;;;9.45;5.53;;;;;;;22.78;77.83;96401.56;10542080;28;20194;-73
2023/06/21 05:53:18;;;;;;;7.55;5.35;;;;;;;23.18;76.14;96399.00;10541685;28;20268;-72
2023/06/21 05:58:20;;;;;;;10.30;5.60;;;;;;;23.35;75.42;96396.31;10541477;28;20202;-73
2023/06/21 06:03:20;;;;;;;7.45;5.43;;;;;;;23.22;75.79;96418.84;10540218;28;20187;-72
2023/06/21 06:08:21;;;;;;;8.88;5.80;;;;;;;23.56;73.47;96394.72;10541025;28;20194;-72
2023/06/21 06:13:22;;;;;;;9.32;5.68;;;;;;;24.06;71.93;96400.97;10540565;28;20234;-73
2023/06/21 06:18:22;;;;;;;11.20;6.13;;;;;;;23.95;71.10;96402.72;10540991;28;20194;-72
2023/06/21 06:23:22;;;;;;;9.95;5.85;;;;;;;24.35;70.62;96409.56;10539621;28;20259;-73
2023/06/21 06:28:23;;;;;;;7.55;5.60;;;;;;;24.69;71.04;96433.53;10540543;28;20191;-73
2023/06/21 06:33:23;;;;;;;7.75;5.07;;;;;;;25.51;67.28;96412.72;10539872;28;20281;-73
2023/06/21 06:38:23;;;;;;;8.93;5.57;;;;;;;25.30;66.00;96409.13;10539840;28;20226;-73
2023/06/21 06:43:24;;;;;;;9.27;4.77;;;;;;;25.23;64.97;96416.53;10539774;28;20462;-73
2023/06/21 06:48:26;;;;;;;8.73;6.00;;;;;;;25.60;65.32;96435.28;10521163;28;20440;-72
2023/06/21 06:53:26;;;;;;;8.02;5.57;;;;;;;25.59;64.13;96425.66;10539457;28;20212;-72
2023/06/21 06:58:27;;;;;;;8.32;6.15;;;;;;;26.41;61.41;96406.38;10538779;28;20707;-73
2023/06/21 07:03:28;;;;;;;8.77;5.25;;;;;;;27.59;58.67;96401.00;10539054;28;20689;-73
2023/06/21 07:08:28;;;;;;;7.63;5.20;;;;;;;28.47;54.93;96362.94;10538747;28;20230;-74
2023/06/21 07:13:28;;;;;;;7.87;4.97;;;;;;;29.25;53.11;96363.13;10538352;28;20476;-74
2023/06/21 07:18:29;;;;;;;7.07;4.80;;;;;;;28.00;55.96;96372.38;10538289;28;20443;-74
2023/06/21 07:23:29;;;;;;;6.20;4.70;;;;;;;28.91;52.77;96353.19;10538086;28;20432;-74
2023/06/21 07:28:30;;;;;;;6.43;4.57;;;;;;;28.33;53.44;96361.94;10538216;28;20193;-73
2023/06/21 07:33:30;;;;;;;7.75;4.63;;;;;;;28.47;52.61;96344.88;10536640;28;20554;-74
2023/06/21 07:38:30;;;;;;;7.57;4.47;;;;;;;29.14;51.09;96357.84;10537620;28;20238;-74
2023/06/21 07:43:31;;;;;;;5.27;4.10;;;;;;;29.57;49.67;96342.81;10537473;28;20444;-73
2023/06/21 07:48:31;;;;;;;8.60;4.28;;;;;;;27.69;52.71;96354.44;10537145;28;20451;-73
2023/06/21 07:53:32;;;;;;;9.05;4.15;;;;;;;27.65;52.87;96356.06;10537143;28;20592;-74
2023/06/21 07:58:32;;;;;;;8.52;4.50;;;;;;;27.15;54.01;96390.03;10537056;28;20233;-73
2023/06/21 08:03:32;;;;;;;4.13;3.70;;;;;;;28.65;49.48;96361.47;10536759;28;20194;-73
2023/06/21 08:08:33;;;;;;;7.37;3.87;;;;;;;28.78;48.02;96331.19;10536673;28;20538;-73
2023/06/21 08:13:33;;;;;;;6.57;3.80;;;;;;;28.33;49.60;96349.31;10536223;28;20484;-73
2023/06/21 08:18:34;;;;;;;7.00;4.03;;;;;;;28.72;48.34;96345.78;10536631;28;20447;-73
2023/06/21 08:23:34;;;;;;;8.95;4.13;;;;;;;26.80;53.60;96388.97;10536375;28;20468;-73
2023/06/21 08:28:35;;;;;;;5.57;3.63;;;;;;;29.10;48.54;96362.19;10536072;28;20228;-73
2023/06/21 08:33:35;;;;;;;6.80;4.28;;;;;;;29.13;48.74;96366.22;10536407;28;20441;-73
2023/06/21 08:38:35;;;;;;;6.20;4.77;;;;;;;27.59;52.68;96397.53;10534635;28;20214;-72
2023/06/21 08:43:36;;;;;;;4.63;3.80;;;;;;;29.61;46.99;96365.47;10537591;28;20462;-72
2023/06/21 08:48:37;;;;;;;7.43;3.87;;;;;;;29.45;45.64;96335.13;10541506;28;20501;-73
2023/06/21 08:53:39;;;;;;;6.25;4.20;;;;;;;30.51;43.98;96349.47;10543999;28;20437;-73
2023/06/21 08:58:42;;;;;;;7.50;4.13;;;;;;;30.73;43.48;96344.22;10543135;28;20201;-72
2023/06/21 09:03:48;;;;;;;7.72;3.88;;;;;;;29.97;45.84;96383.94;10543377;28;20191;-72
2023/06/21 09:08:49;;;;;;;9.05;3.83;;;;;;;30.65;42.70;96322.47;10542760;28;20237;-73
2023/06/21 09:13:50;;;;;;;7.78;3.63;;;;;;;29.22;44.56;96317.84;10543004;28;20234;-72
2023/06/21 09:18:50;;;;;;;8.45;3.95;;;;;;;29.54;44.81;96338.78;10543429;28;20186;-72
2023/06/21 09:23:51;;;;;;;5.65;3.50;;;;;;;30.26;43.63;96323.59;10543134;28;20186;-73
2023/06/21 09:28:51;;;;;;;5.75;3.75;;;;;;;30.30;42.56;96301.09;10542589;28;20215;-73
2023/06/21 09:33:52;;;;;;;7.78;3.50;;;;;;;27.72;46.89;96302.75;10542910;28;20190;-72
2023/06/21 09:39:05;;;;;;;6.07;3.85;;;;;;;30.07;42.32;96291.97;10540766;28;20565;-73
2023/06/21 09:44:05;;;;;;;7.10;3.80;;;;;;;28.91;44.55;96289.25;10542317;28;20182;-73
2023/06/21 09:49:07;;;;;;;4.60;3.90;;;;;;;31.77;41.39;96325.03;10541780;28;20584;-73
2023/06/21 09:54:08;;;;;;;6.05;3.50;;;;;;;31.76;40.75;96296.38;10541593;28;20449;-72
2023/06/21 09:59:18;;;;;;;4.50;3.55;;;;;;;33.59;37.90;96309.56;10540797;28;20190;-73
2023/06/21 10:04:19;;;;;;;5.70;3.63;;;;;;;33.89;38.10;96331.53;10541656;28;20187;-73
2023/06/21 10:09:19;;;;;;;7.03;3.80;;;;;;;34.21;37.91;96330.28;10541143;28;20260;-73
2023/06/21 10:14:25;;;;;;;5.00;3.47;;;;;;;30.10;40.70;96250.88;10522800;28;21055;-73
2023/06/21 10:19:26;;;;;;;5.70;3.90;;;;;;;32.20;40.48;96353.69;10540091;28;20538;-73
2023/06/21 10:24:29;;;;;;;6.97;4.18;;;;;;;31.05;42.15;96331.03;10540818;28;20186;-74
2023/06/21 10:29:31;;;;;;;6.00;3.28;;;;;;;33.30;39.45;96365.19;10522335;28;20305;-73
2023/06/21 10:34:43;;;;;;;6.90;4.25;;;;;;;34.72;37.25;96363.28;10522522;28;20191;-73
2023/06/21 10:39:47;;;;;;;5.93;3.60;;;;;;;33.95;38.23;96365.59;10521804;28;20297;-73
2023/06/21 10:44:49;;;;;;;7.32;3.70;;;;;;;32.84;38.87;96339.22;10521967;28;20273;-73
2023/06/21 10:49:50;;;;;;;7.32;4.10;;;;;;;32.80;38.18;96316.50;10540051;28;20229;-73
2023/06/21 10:54:54;;;;;;;5.22;4.30;;;;;;;30.00;43.46;96337.44;10521387;28;20650;-73
2023/06/21 11:00:03;;;;;;;7.00;4.57;;;;;;;29.97;45.63;96406.38;10539566;28;20191;-73
2023/06/21 11:05:17;;;;;;;6.43;4.15;;;;;;;32.30;40.85;96377.88;10520905;28;20183;-73
2023/06/21 11:10:49;;;;;;;6.60;4.30;;;;;;;33.93;39.15;96405.88;10538539;28;20240;-74
2023/06/21 11:15:50;;;;;;;6.95;4.10;;;;;;;34.55;37.72;96387.75;10538729;28;20661;-74
2023/06/21 11:20:51;;;;;;;5.70;4.40;;;;;;;32.37;39.46;96331.34;10538978;28;20187;-74
2023/06/21 11:25:58;;;;;;;6.43;5.10;;;;;;;31.26;42.87;96380.97;10537960;28;20502;-74
2023/06/21 11:30:58;;;;;;;5.82;5.22;;;;;;;32.14;42.33;96415.31;10538302;28;20219;-73
2023/06/21 11:36:06;;;;;;;9.23;4.95;;;;;;;33.58;39.69;96430.19;10537823;28;20205;-73
2023/06/21 11:41:34;;;;;;;6.50;5.00;;;;;;;32.94;39.78;96397.84;10537825;28;20670;-73
2023/06/21 11:46:34;;;;;;;7.63;5.38;;;;;;;32.48;41.08;96421.41;10537563;28;20229;-74
2023/06/21 11:51:35;;;;;;;7.80;4.93;;;;;;;31.16;43.70;96442.59;10536933;28;20773;-74
2023/06/21 11:56:35;;;;;;;6.32;4.78;;;;;;;30.70;43.14;96411.63;10537049;28;20931;-74
2023/06/21 12:01:35;;;;;;;11.17;5.50;;;;;;;29.85;44.56;96408.69;10537041;28;20283;-73
2023/06/21 12:06:36;;;;;;;9.73;5.13;;;;;;;31.91;41.32;96417.13;10537017;28;20436;-73
2023/06/21 12:11:37;;;;;;;8.13;5.15;;;;;;;30.61;44.74;96448.53;10518056;28;20494;-73
2023/06/21 12:16:37;;;;;;;6.73;5.10;;;;;;;31.50;43.19;96450.38;10536658;28;20672;-73
2023/06/21 12:21:42;;;;;;;7.50;5.07;;;;;;;32.21;43.41;96463.72;10535998;28;20777;-74
2023/06/21 12:26:53;;;;;;;6.45;4.47;;;;;;;33.73;40.26;96437.16;10536282;28;20559;-74
2023/06/21 12:31:56;;;;;;;5.60;4.65;;;;;;;34.41;38.41;96418.66;10536092;28;20219;-74
2023/06/21 12:36:58;;;;;;;8.18;5.18;;;;;;;32.66;39.56;96368.13;10536021;28;20210;-73
2023/06/21 12:41:59;;;;;;;5.47;4.50;;;;;;;34.69;36.54;96393.84;10536113;28;20205;-74
2023/06/21 12:47:01;;;;;;;7.13;4.60;;;;;;;34.41;36.55;96371.59;10535423;28;20277;-74
2023/06/21 12:52:02;;;;;;;8.10;4.43;;;;;;;35.17;36.15;96383.88;10535315;28;20233;-74
2023/06/21 12:57:02;;;;;;;5.80;4.30;;;;;;;36.03;36.20;96406.47;10535334;28;20190;-74
2023/06/21 13:02:02;;;;;;;8.77;4.63;;;;;;;34.84;37.20;96387.13;10535612;28;20417;-74
2023/06/21 13:07:03;;;;;;;11.68;5.15;;;;;;;34.43;38.01;96397.38;10535648;28;20579;-74
2023/06/21 13:12:04;;;;;;;11.90;4.63;;;;;;;34.42;37.59;96392.25;10535113;28;20245;-75
2023/06/21 13:17:04;;;;;;;5.38;4.30;;;;;;;35.01;37.85;96417.06;10535506;28;20228;-74
2023/06/21 13:22:05;;;;;;;7.03;4.25;;;;;;;35.03;38.31;96416.75;10535142;28;20198;-74
2023/06/21 13:27:06;;;;;;;7.47;4.28;;;;;;;36.11;34.86;96379.50;10535490;28;20178;-74
2023/06/21 13:32:06;;;;;;;5.70;4.27;;;;;;;35.68;36.21;96395.75;10540328;28;20220;-74
2023/06/21 13:37:07;;;;;;;5.73;3.90;;;;;;;37.45;32.62;96364.06;10542726;28;21336;-74
2023/06/21 13:42:08;;;;;;;8.20;3.80;;;;;;;36.91;34.11;96378.59;10542176;28;20480;-74
2023/06/21 13:47:08;;;;;;;10.40;4.10;;;;;;;35.96;34.57;96368.06;10541989;28;20428;-74
2023/06/21 13:52:08;;;;;;;4.70;3.77;;;;;;;36.58;33.80;96365.69;10541737;28;20221;-74
2023/06/21 13:57:14;;;;;;;4.60;3.60;;;;;;;36.91;32.78;96337.66;10542063;28;20186;-74
2023/06/21 14:02:15;;;;;;;3.63;3.30;;;;;;;37.88;30.75;96324.44;10541619;28;20189;-74
2023/06/21 14:07:15;;;;;;;4.70;3.40;;;;;;;37.39;32.42;96359.97;10541172;28;20196;-74
2023/06/21 14:12:16;;;;;;;4.53;3.63;;;;;;;37.45;31.79;96345.72;10540918;28;20719;-74
2023/06/21 14:17:16;;;;;;;6.33;3.70;;;;;;;34.85;35.22;96333.50;10540959;28;20198;-74
2023/06/21 14:22:17;;;;;;;5.67;3.60;;;;;;;34.27;36.31;96336.41;10540773;28;20212;-75
2023/06/21 14:27:17;;;;;;;5.00;3.63;;;;;;;34.03;36.50;96332.19;10540570;28;20198;-74
2023/06/21 14:32:18;;;;;;;5.13;3.37;;;;;;;33.63;35.97;96310.53;10540529;28;20225;-74
2023/06/21 14:37:18;;;;;;;7.67;3.90;;;;;;;31.92;39.24;96315.00;10540022;28;20466;-74
2023/06/21 14:42:18;;;;;;;3.97;3.57;;;;;;;30.62;42.24;96339.28;10539363;28;20440;-73
2023/06/21 14:47:19;;;;;;;4.57;3.57;;;;;;;30.12;42.35;96348.63;10539463;28;20432;-74
2023/06/21 14:52:19;;;;;;;4.30;3.40;;;;;;;30.36;43.30;96381.00;10538650;28;20558;-73
2023/06/21 14:57:20;;;;;;;5.05;4.10;;;;;;;29.32;44.34;96369.81;10539512;28;20182;-74
2023/06/21 15:02:20;;;;;;;12.90;4.13;;;;;;;29.09;45.77;96398.31;10539049;28;20193;-74
2023/06/21 15:07:20;;;;;;;5.03;3.73;;;;;;;28.91;46.62;96420.59;10520969;28;20467;-73
2023/06/21 15:12:21;;;;;;;5.23;3.60;;;;;;;29.24;45.68;96431.69;10520427;28;20480;-73
2023/06/21 15:17:21;;;;;;;4.65;4.03;;;;;;;28.87;47.21;96438.41;10520745;28;20949;-74
2023/06/21 15:22:21;;;;;;;7.13;4.23;;;;;;;29.96;45.87;96474.19;10538215;28;20291;-74
2023/06/21 15:27:22;;;;;;;6.97;3.72;;;;;;;31.95;42.40;96460.69;10538340;28;20445;-74
2023/06/21 15:32:22;;;;;;;6.43;4.05;;;;;;;34.42;38.38;96460.25;10537858;28;20260;-74
2023/06/21 15:37:22;;;;;;;6.60;3.80;;;;;;;34.51;37.09;96414.81;10537858;28;20217;-73
2023/06/21 15:42:23;;;;;;;4.77;4.07;;;;;;;32.91;39.21;96426.38;10537640;28;20440;-74
2023/06/21 15:47:23;;;;;;;3.97;3.58;;;;;;;31.90;41.15;96426.38;10537124;28;20447;-73
2023/06/21 15:52:24;;;;;;;7.17;3.43;;;;;;;30.16;42.94;96401.00;10536624;28;20222;-73
2023/06/21 15:57:24;;;;;;;8.88;4.00;;;;;;;29.51;44.07;96421.16;10518538;28;20444;-73
2023/06/21 16:02:25;;;;;;;5.93;3.83;;;;;;;29.12;46.66;96469.78;10537133;28;20190;-73
2023/06/21 16:07:25;;;;;;;5.38;3.60;;;;;;;29.39;46.70;96471.22;10517664;28;20444;-73
2023/06/21 16:12:25;;;;;;;7.15;3.70;;;;;;;29.08;46.62;96471.44;10536443;28;20232;-73
2023/06/21 16:17:26;;;;;;;4.43;3.83;;;;;;;28.67;47.72;96472.53;10536504;28;20190;-73
2023/06/21 16:22:26;;;;;;;6.03;4.15;;;;;;;28.10;49.38;96494.31;10536433;28;20515;-73
2023/06/21 16:27:27;;;;;;;6.10;3.93;;;;;;;28.43;48.33;96502.00;10536523;28;20564;-73
2023/06/21 16:32:27;;;;;;;8.10;4.57;;;;;;;27.79;49.89;96508.91;10535816;28;20829;-73
2023/06/21 16:37:27;;;;;;;6.33;4.53;;;;;;;27.51;50.25;96501.13;10536149;28;20926;-73
2023/06/21 16:42:29;;;;;;;5.20;4.40;;;;;;;26.94;51.77;96518.28;10535908;28;20803;-73
2023/06/21 16:47:29;;;;;;;7.57;4.78;;;;;;;26.76;52.40;96543.81;10536198;28;20474;-73
2023/06/21 16:52:29;;;;;;;7.63;4.53;;;;;;;26.65;52.78;96546.44;10535693;28;20271;-73
2023/06/21 16:57:30;;;;;;;5.20;4.43;;;;;;;26.32;53.58;96567.22;10535987;28;20472;-73
2023/06/21 17:02:30;;;;;;;5.20;4.65;;;;;;;26.63;53.55;96577.31;10535778;28;20416;-73
2023/06/21 17:07:31;;;;;;;9.27;4.50;;;;;;;26.36;53.94;96582.84;10541938;28;20221;-73
2023/06/21 17:12:32;;;;;;;4.85;4.10;;;;;;;26.29;54.38;96599.97;10543306;28;20484;-73
2023/06/21 17:17:32;;;;;;;6.03;5.10;;;;;;;25.87;56.65;96645.59;10543351;28;20201;-73
2023/06/21 17:22:32;;;;;;;8.90;4.40;;;;;;;25.97;56.75;96651.84;10543243;28;20464;-73
2023/06/21 17:27:33;;;;;;;6.22;4.60;;;;;;;26.09;57.38;96662.41;10524287;28;20509;-73
2023/06/21 17:32:33;;;;;;;6.13;4.32;;;;;;;25.27;58.97;96649.03;10542635;28;20229;-72
2023/06/21 17:37:34;;;;;;;6.40;4.80;;;;;;;24.98;60.75;96650.31;10542228;28;20242;-73
2023/06/21 17:42:34;;;;;;;5.40;4.60;;;;;;;25.14;61.33;96645.94;10542242;28;20191;-72
2023/06/21 17:47:34;;;;;;;9.20;4.53;;;;;;;25.34;60.63;96650.75;10542053;28;20433;-72
2023/06/21 17:52:35;;;;;;;5.90;5.30;;;;;;;25.46;60.30;96667.50;10541395;28;20218;-72
2023/06/21 17:57:35;;;;;;;7.13;5.40;;;;;;;25.41;61.12;96668.25;10541675;28;20441;-73
2023/06/21 18:02:35;;;;;;;7.20;4.82;;;;;;;25.61;60.93;96673.00;10541635;28;20523;-73
2023/06/21 18:07:36;;;;;;;8.23;5.38;;;;;;;25.12;62.85;96699.81;10541530;28;20734;-73
2023/06/21 18:12:36;;;;;;;8.03;4.97;;;;;;;24.30;66.23;96720.09;10540615;28;20325;-73
2023/06/21 18:17:38;;;;;;;6.15;5.03;;;;;;;24.03;67.65;96718.88;10540316;28;20464;-73
2023/06/21 18:22:38;;;;;;;5.47;4.68;;;;;;;23.83;69.18;96731.88;10540736;28;20194;-73
2023/06/21 18:27:39;;;;;;;7.35;5.68;;;;;;;23.54;70.59;96733.75;10540628;28;20197;-73
2023/06/21 18:32:39;;;;;;;7.15;5.90;;;;;;;23.29;73.00;96753.59;10540373;28;20236;-73
2023/06/21 18:37:40;;;;;;;7.50;5.75;;;;;;;23.06;74.93;96757.09;10540191;28;20234;-73
2023/06/21 18:42:40;;;;;;;11.18;6.45;;;;;;;22.74;76.12;96747.63;10540148;28;20194;-73
2023/06/21 18:47:41;;;;;;;7.93;5.90;;;;;;;22.72;77.58;96751.56;10539517;28;20193;-73
2023/06/21 18:52:41;;;;;;;6.38;5.68;;;;;;;22.89;77.53;96754.34;10539218;28;20214;-73
2023/06/21 18:57:42;;;;;;;7.50;5.25;;;;;;;22.73;78.57;96762.03;10539098;28;20228;-73
2023/06/21 19:02:42;;;;;;;7.10;5.43;;;;;;;22.67;79.13;96770.16;10539456;28;20201;-73
2023/06/21 19:07:42;;;;;;;6.13;5.53;;;;;;;22.80;78.33;96759.22;10539013;28;20629;-73
2023/06/21 19:12:43;;;;;;;8.85;6.47;;;;;;;22.60;79.05;96754.22;10538618;28;20737;-73
2023/06/21 19:17:44;;;;;;;6.60;5.82;;;;;;;22.33;81.02;96762.69;10538969;28;20202;-73
2023/06/21 19:22:45;;;;;;;7.43;6.05;;;;;;;21.88;84.05;96784.47;10538128;28;20663;-73
2023/06/21 19:27:45;;;;;;;8.60;6.25;;;;;;;21.69;85.51;96795.19;10538607;28;20224;-73
2023/06/21 19:32:45;;;;;;;9.32;6.38;;;;;;;21.55;87.42;96805.22;10519633;28;20214;-73
2023/06/21 19:37:47;;;;;;;7.85;6.13;;;;;;;21.31;90.17;96814.91;10538084;28;20545;-72
2023/06/21 19:42:47;;;;;;;7.45;6.07;;;;;;;21.32;90.89;96819.19;10537719;28;20193;-72
2023/06/21 19:47:47;;;;;;;8.88;6.40;;;;;;;21.08;92.11;96822.75;10537377;28;20189;-72
2023/06/21 19:52:48;;;;;;;8.55;6.43;;;;;;;20.74;95.16;96835.56;10519194;28;20218;-73
2023/06/21 19:57:48;;;;;;;8.23;6.30;;;;;;;20.28;99.36;96834.84;10537191;28;20225;-72
2023/06/21 20:02:49;;;;;;;7.97;7.13;;;;;;;20.00;100.00;96851.19;10537156;28;20595;-73
2023/06/21 20:07:49;;;;;;;8.23;6.60;;;;;;;20.04;100.00;96855.84;10536888;28;20209;-72
2023/06/21 20:12:50;;;;;;;9.77;6.70;;;;;;;19.77;100.00;96857.84;10536649;28;20310;-72
2023/06/21 20:17:50;;;;;;;10.75;7.18;;;;;;;19.80;100.00;96860.09;10536624;28;20191;-72
2023/06/21 20:22:51;;;;;;;8.50;6.82;;;;;;;19.66;100.00;96855.81;10518387;28;20194;-72
2023/06/21 20:27:51;;;;;;;9.27;6.78;;;;;;;19.53;100.00;96862.81;10536573;28;20190;-72
2023/06/21 20:32:55;;;;;;;9.77;7.45;;;;;;;18.94;100.00;96861.91;10536286;28;20226;-72
2023/06/21 20:37:55;;;;;;;8.07;7.18;;;;;;;19.01;100.00;96860.06;10536287;28;20575;-72
2023/06/21 20:42:56;;;;;;;7.90;7.18;;;;;;;18.90;100.00;96863.34;10543762;28;20190;-72
2023/06/21 20:47:58;;;;;;;13.13;8.13;;;;;;;18.99;100.00;96870.09;10544336;28;20201;-72
2023/06/21 20:52:58;;;;;;;9.13;7.80;;;;;;;18.91;100.00;96869.47;10543843;28;20218;-72
2023/06/21 20:58:02;;;;;;;8.63;7.45;;;;;;;18.77;100.00;96865.97;10544444;28;20755;-72
2023/06/21 21:09:23;;;;;;;12.55;7.63;;;;;;;18.67;100.00;96859.25;10544516;28;20229;-72
2023/06/21 21:14:23;;;;;;;10.95;7.75;;;;;;;18.56;100.00;96867.00;10543571;28;20364;-73
2023/06/21 21:19:23;;;;;;;9.52;7.35;;;;;;;18.51;100.00;96865.78;10543533;28;20336;-72
2023/06/21 21:24:24;;;;;;;10.68;7.80;;;;;;;18.38;100.00;96857.81;10543287;28;20187;-72
2023/06/21 21:29:24;;;;;;;9.60;8.50;;;;;;;18.25;100.00;96865.72;10543186;28;20228;-72
2023/06/21 21:34:25;;;;;;;8.90;8.00;;;;;;;18.29;100.00;96869.63;10542593;28;20600;-72
2023/06/21 21:39:25;;;;;;;10.48;8.40;;;;;;;18.22;100.00;96871.44;10542796;28;20638;-72
2023/06/21 21:44:26;;;;;;;12.45;8.48;;;;;;;18.18;100.00;96876.34;10542154;28;20191;-72
2023/06/21 21:49:26;;;;;;;10.38;7.80;;;;;;;18.04;100.00;96878.16;10524170;28;20218;-72
2023/06/21 21:54:26;;;;;;;12.35;8.32;;;;;;;18.02;100.00;96884.66;10540588;28;20313;-72
2023/06/21 21:59:27;;;;;;;10.68;7.88;;;;;;;17.83;100.00;96897.59;10541902;28;20191;-72
2023/06/21 22:04:27;;;;;;;10.45;7.63;;;;;;;17.72;100.00;96884.91;10541902;28;20256;-72
2023/06/21 22:09:27;;;;;;;11.25;8.00;;;;;;;17.73;100.00;96890.00;10541146;28;20214;-71
2023/06/21 22:14:32;;;;;;;9.50;8.55;;;;;;;17.74;100.00;96890.84;10541351;28;20773;-72
2023/06/21 22:19:32;;;;;;;9.77;7.85;;;;;;;17.51;100.00;96876.06;10540939;28;20206;-72
2023/06/21 22:24:33;;;;;;;12.50;8.73;;;;;;;17.43;100.00;96886.81;10540988;28;20186;-71
2023/06/21 22:29:33;;;;;;;10.38;7.95;;;;;;;17.37;100.00;96895.56;10522688;28;20226;-71
2023/06/21 22:34:36;;;;;;;14.02;8.90;;;;;;;17.17;100.00;96896.25;10540445;28;20198;-72
2023/06/21 22:39:37;;;;;;;10.40;8.65;;;;;;;17.18;100.00;96887.31;10540143;28;20210;-72
2023/06/21 22:44:37;;;;;;;9.35;7.60;;;;;;;17.11;100.00;96889.06;10539909;28;20571;-72
2023/06/21 22:49:38;;;;;;;10.50;7.95;;;;;;;17.10;100.00;96887.44;10539886;28;20211;-73
2023/06/21 22:54:39;;;;;;;11.93;7.93;;;;;;;16.95;100.00;96882.22;10539774;28;20198;-71
2023/06/21 22:59:39;;;;;;;11.50;7.72;;;;;;;16.88;100.00;96891.97;10539212;28;20193;-72
2023/06/21 23:04:39;;;;;;;9.02;8.13;;;;;;;16.77;100.00;96902.03;10539013;28;20194;-72
2023/06/21 23:09:40;;;;;;;10.05;9.05;;;;;;;16.74;100.00;96899.75;10538834;28;20267;-73
2023/06/21 23:14:42;;;;;;;12.35;8.30;;;;;;;16.70;100.00;96898.50;10538745;28;20317;-73
2023/06/21 23:19:43;;;;;;;10.77;9.05;;;;;;;16.62;100.00;96901.28;10538905;28;20799;-73